createdAt,value
2022-10-17T00:01:52.938Z,14.88
2022-10-17T00:03:55.928Z,14.89
2022-10-17T00:06:00.227Z,14.88
2022-10-17T00:08:03.167Z,14.89
2022-10-17T00:10:08.852Z,14.90
2022-10-17T00:12:11.947Z,14.89
2022-10-17T00:14:14.879Z,14.90
2022-10-17T00:16:24.542Z,14.98
2022-10-17T00:18:27.578Z,14.98
2022-10-17T00:20:32.677Z,14.92
2022-10-17T00:24:39.899Z,15.01
2022-10-17T00:26:42.968Z,15.05
2022-10-17T00:28:47.957Z,15.12
2022-10-17T00:30:57.346Z,15.23
2022-10-17T00:33:00.390Z,15.31
2022-10-17T00:35:03.322Z,15.41
2022-10-17T00:37:06.207Z,15.70
2022-10-17T00:39:10.612Z,15.74
2022-10-17T00:41:17.660Z,16.01
2022-10-17T00:43:21.121Z,16.12
2022-10-17T00:45:25.622Z,16.22
2022-10-17T00:47:29.310Z,16.39
2022-10-17T00:49:35.358Z,16.47
2022-10-17T00:51:41.866Z,16.55
2022-10-17T00:53:45.722Z,16.63
2022-10-17T00:55:52.802Z,16.74
2022-10-17T00:57:56.682Z,16.85
2022-10-17T01:00:02.877Z,16.90
2022-10-17T01:02:07.556Z,16.95
2022-10-17T01:04:11.353Z,16.96
2022-10-17T01:06:15.976Z,16.99
2022-10-17T01:08:19.005Z,17.04
2022-10-17T01:12:33.458Z,17.14
2022-10-17T01:14:42.398Z,17.14
2022-10-17T01:16:49.061Z,17.15
2022-10-17T01:19:01.063Z,17.16
2022-10-17T01:21:20.793Z,17.19
2022-10-17T01:23:32.244Z,17.21
2022-10-17T01:25:43.220Z,17.21
2022-10-17T01:27:57.473Z,17.22
2022-10-17T01:30:27.839Z,17.20
2022-10-17T01:32:37.140Z,17.22
2022-10-17T01:34:45.294Z,17.23
2022-10-17T01:36:52.213Z,17.25
2022-10-17T01:39:00.090Z,17.27
2022-10-17T01:41:04.916Z,17.25
2022-10-17T01:43:12.749Z,17.24
2022-10-17T01:45:19.476Z,17.24
2022-10-17T01:47:26.282Z,17.27
2022-10-17T01:49:33.150Z,17.27
2022-10-17T01:51:39.837Z,17.27
2022-10-17T01:53:47.305Z,17.32
2022-10-17T01:55:51.314Z,17.27
2022-10-17T01:57:56.737Z,17.31
2022-10-17T01:59:59.733Z,17.32
2022-10-17T02:02:03.252Z,17.35
2022-10-17T02:04:07.889Z,17.35
2022-10-17T02:06:12.119Z,17.35
2022-10-17T02:08:15.513Z,17.30
2022-10-17T02:10:23.298Z,17.30
2022-10-17T02:12:42.079Z,17.32
2022-10-17T02:14:56.814Z,17.31
2022-10-17T02:17:09.171Z,17.29
2022-10-17T02:19:33.422Z,17.31
2022-10-17T02:21:54.513Z,17.30
2022-10-17T02:24:01.614Z,17.30
2022-10-17T02:26:08.071Z,17.35
2022-10-17T02:28:20.391Z,17.39
2022-10-17T02:30:28.491Z,17.40
2022-10-17T02:32:36.446Z,17.42
2022-10-17T02:34:42.435Z,17.45
2022-10-17T02:36:48.954Z,17.52
2022-10-17T02:38:54.578Z,17.54
2022-10-17T02:40:57.558Z,17.56
2022-10-17T02:43:01.732Z,17.58
2022-10-17T02:45:06.731Z,17.62
2022-10-17T02:47:17.794Z,17.64
2022-10-17T02:49:24.753Z,17.66
2022-10-17T02:51:30.992Z,17.67
2022-10-17T02:53:39.829Z,17.73
2022-10-17T02:55:47.814Z,17.75
2022-10-17T02:57:52.652Z,17.81
2022-10-17T02:59:56.664Z,17.85
2022-10-17T03:01:59.723Z,17.90
2022-10-17T03:04:07.218Z,17.93
2022-10-17T03:06:10.178Z,17.91
2022-10-17T03:08:13.475Z,17.93
2022-10-17T03:10:16.639Z,18.03
2022-10-17T03:12:21.173Z,18.08
2022-10-17T03:14:25.103Z,18.05
2022-10-17T03:16:27.946Z,18.00
2022-10-17T03:18:31.612Z,18.01
2022-10-17T03:20:37.079Z,17.98
2022-10-17T03:22:39.960Z,17.97
2022-10-17T03:24:43.242Z,17.98
2022-10-17T03:28:53.655Z,17.93
2022-10-17T03:30:58.107Z,17.93
2022-10-17T03:33:01.465Z,17.86
2022-10-17T03:35:05.234Z,17.85
2022-10-17T03:37:08.375Z,17.80
2022-10-17T03:39:13.140Z,17.80
2022-10-17T03:41:16.302Z,17.82
2022-10-17T03:43:19.166Z,17.83
2022-10-17T03:45:23.764Z,17.78
2022-10-17T03:47:28.249Z,17.81
2022-10-17T03:49:32.130Z,17.79
2022-10-17T03:51:35.190Z,17.77
2022-10-17T03:53:42.762Z,17.81
2022-10-17T03:55:46.258Z,17.80
2022-10-17T03:57:49.154Z,17.80
2022-10-17T03:59:54.997Z,17.79
2022-10-17T04:01:59.716Z,17.79
2022-10-17T04:04:02.695Z,17.79
2022-10-17T04:06:09.144Z,17.79
2022-10-17T04:08:13.086Z,17.79
2022-10-17T04:10:36.230Z,17.78
2022-10-17T04:12:39.220Z,17.76
2022-10-17T04:14:42.523Z,17.83
2022-10-17T04:16:45.896Z,17.83
2022-10-17T04:18:56.290Z,17.86
2022-10-17T04:21:02.619Z,17.80
2022-10-17T04:23:06.860Z,17.82
2022-10-17T04:25:10.532Z,17.86
2022-10-17T04:27:16.446Z,17.87
2022-10-17T04:29:21.769Z,17.87
2022-10-17T04:31:27.053Z,17.90
2022-10-17T04:33:52.806Z,17.90
2022-10-17T04:35:59.268Z,17.90
2022-10-17T04:38:02.490Z,17.88
2022-10-17T04:40:06.223Z,17.90
2022-10-17T04:42:10.717Z,17.91
2022-10-17T04:44:14.222Z,17.92
2022-10-17T04:46:22.726Z,17.96
2022-10-17T04:48:25.829Z,17.93
2022-10-17T04:50:28.718Z,18.00
2022-10-17T04:52:59.108Z,18.04
2022-10-17T04:55:02.006Z,18.03
2022-10-17T04:57:05.111Z,18.08
2022-10-17T04:59:09.184Z,18.10
2022-10-17T05:01:15.885Z,18.15
2022-10-17T05:03:20.816Z,18.14
2022-10-17T05:05:23.882Z,18.20
2022-10-17T05:07:29.700Z,18.23
2022-10-17T05:09:44.988Z,18.24
2022-10-17T05:11:48.101Z,18.25
2022-10-17T05:13:52.671Z,18.33
2022-10-17T05:15:55.708Z,18.33
2022-10-17T05:17:58.898Z,18.33
2022-10-17T05:20:03.984Z,18.34
2022-10-17T05:22:10.358Z,18.37
2022-10-17T05:24:15.443Z,18.37
2022-10-17T05:26:20.260Z,18.40
2022-10-17T05:28:23.242Z,18.39
2022-10-17T05:30:27.871Z,18.43
2022-10-17T05:32:35.393Z,18.39
2022-10-17T05:34:38.543Z,18.41
2022-10-17T05:36:41.818Z,18.41
2022-10-17T05:38:45.906Z,18.40
2022-10-17T05:40:48.833Z,18.42
2022-10-17T05:42:53.380Z,18.47
2022-10-17T05:44:58.512Z,18.46
2022-10-17T05:47:02.553Z,18.45
2022-10-17T05:49:14.778Z,18.49
2022-10-17T05:51:28.740Z,18.49
2022-10-17T05:53:33.807Z,18.47
2022-10-17T05:55:41.196Z,18.45
2022-10-17T05:57:44.222Z,18.46
2022-10-17T05:59:52.668Z,18.49
2022-10-17T06:01:57.023Z,18.46
2022-10-17T06:04:00.156Z,18.47
2022-10-17T06:06:06.921Z,18.51
2022-10-17T06:08:10.697Z,18.53
2022-10-17T06:10:16.381Z,18.52
2022-10-17T06:12:19.495Z,18.56
2022-10-17T06:14:22.957Z,18.53
2022-10-17T06:16:30.886Z,18.54
2022-10-17T06:18:36.388Z,18.58
2022-10-17T06:20:43.848Z,18.60
2022-10-17T06:22:49.914Z,18.62
2022-10-17T06:25:02.539Z,18.63
2022-10-17T06:27:10.833Z,18.65
2022-10-17T06:29:16.225Z,18.69
2022-10-17T06:31:23.298Z,18.71
2022-10-17T06:33:28.493Z,18.80
2022-10-17T06:35:31.777Z,18.86
2022-10-17T06:37:36.630Z,18.87
2022-10-17T06:39:43.833Z,18.90
2022-10-17T06:41:49.415Z,18.91
2022-10-17T06:43:55.145Z,18.93
2022-10-17T06:46:18.025Z,18.94
2022-10-17T06:48:32.648Z,18.94
2022-10-17T06:50:50.561Z,19.02
2022-10-17T06:52:57.267Z,19.04
2022-10-17T06:55:22.582Z,19.04
2022-10-17T06:57:49.191Z,19.07
2022-10-17T07:00:13.935Z,19.12
2022-10-17T07:02:23.662Z,19.11
2022-10-17T07:04:28.856Z,19.14
2022-10-17T07:06:32.465Z,19.18
2022-10-17T07:08:44.533Z,19.22
2022-10-17T07:10:48.295Z,19.25
2022-10-17T07:12:51.212Z,19.33
2022-10-17T07:14:54.409Z,19.42
2022-10-17T07:16:57.457Z,19.40
2022-10-17T07:19:01.091Z,19.47
2022-10-17T07:21:11.077Z,19.62
2022-10-17T07:23:15.694Z,19.70
2022-10-17T07:25:19.122Z,19.72
2022-10-17T07:27:28.796Z,19.80
2022-10-17T07:29:31.933Z,19.82
2022-10-17T07:31:45.524Z,19.85
2022-10-17T07:33:48.809Z,19.91
2022-10-17T07:35:52.851Z,19.94
2022-10-17T07:37:57.336Z,20.01
2022-10-17T07:40:00.374Z,20.12
2022-10-17T07:42:03.316Z,20.20
2022-10-17T07:44:06.483Z,20.13
2022-10-17T07:46:18.244Z,20.52
2022-10-17T07:48:22.434Z,20.80
2022-10-17T07:50:25.579Z,21.05
2022-10-17T07:52:28.677Z,21.20
2022-10-17T07:54:33.272Z,21.16
2022-10-17T07:56:36.360Z,21.30
2022-10-17T07:58:39.912Z,21.16
2022-10-17T08:00:43.192Z,21.18
2022-10-17T08:02:46.375Z,21.14
2022-10-17T08:04:49.377Z,20.89
2022-10-17T08:06:56.452Z,20.82
2022-10-17T08:09:03.782Z,20.88
2022-10-17T08:11:10.053Z,20.86
2022-10-17T08:13:12.972Z,20.81
2022-10-17T08:15:16.033Z,20.83
2022-10-17T08:17:18.929Z,20.70
2022-10-17T08:19:21.839Z,20.68
2022-10-17T08:21:25.503Z,20.88
2022-10-17T08:23:28.772Z,20.97
2022-10-17T08:25:31.989Z,21.03
2022-10-17T08:27:36.499Z,21.17
2022-10-17T08:29:39.486Z,21.27
2022-10-17T08:31:46.476Z,21.05
2022-10-17T08:33:51.531Z,21.23
2022-10-17T08:35:54.586Z,21.39
2022-10-17T08:38:01.494Z,21.56
2022-10-17T08:40:05.232Z,21.59
2022-10-17T08:42:27.880Z,21.50
2022-10-17T08:44:43.091Z,21.27
2022-10-17T08:46:48.405Z,21.53
2022-10-17T08:48:52.866Z,21.60
2022-10-17T08:50:59.448Z,21.85
2022-10-17T08:53:05.442Z,22.03
2022-10-17T08:55:16.418Z,21.71
2022-10-17T08:57:19.470Z,21.94
2022-10-17T08:59:25.828Z,22.10
2022-10-17T09:01:34.635Z,22.09
2022-10-17T09:03:48.682Z,22.04
2022-10-17T09:05:55.232Z,21.98
2022-10-17T09:08:04.483Z,21.84
2022-10-17T09:10:15.503Z,22.31
2022-10-17T09:12:22.220Z,22.56
2022-10-17T09:14:37.088Z,22.79
2022-10-17T09:16:56.147Z,22.86
2022-10-17T09:19:03.629Z,22.89
2022-10-17T09:21:15.505Z,23.09
2022-10-17T09:23:21.037Z,22.99
2022-10-17T09:25:24.101Z,22.84
2022-10-17T09:27:31.841Z,22.90
2022-10-17T09:29:38.969Z,22.95
2022-10-17T09:31:49.389Z,23.24
2022-10-17T09:33:54.895Z,23.01
2022-10-17T09:35:59.729Z,22.92
2022-10-17T09:38:02.670Z,22.85
2022-10-17T09:40:08.588Z,23.03
2022-10-17T09:42:14.409Z,23.22
2022-10-17T09:44:20.227Z,23.41
2022-10-17T09:46:27.150Z,23.46
2022-10-17T09:48:34.740Z,23.31
2022-10-17T09:50:37.972Z,23.51
2022-10-17T09:52:42.235Z,23.29
2022-10-17T09:54:47.086Z,23.40
2022-10-17T09:57:01.851Z,23.69
2022-10-17T09:59:04.714Z,23.76
2022-10-17T10:01:21.126Z,24.06
2022-10-17T10:03:27.608Z,24.12
2022-10-17T10:05:32.643Z,24.08
2022-10-17T10:07:37.668Z,23.85
2022-10-17T10:09:41.260Z,23.95
2022-10-17T10:11:49.829Z,23.81
2022-10-17T10:13:53.072Z,23.51
2022-10-17T10:16:14.820Z,23.39
2022-10-17T10:18:32.953Z,23.24
2022-10-17T10:20:38.915Z,23.09
2022-10-17T10:22:41.816Z,23.01
2022-10-17T10:24:44.918Z,22.95
2022-10-17T10:26:51.536Z,22.85
2022-10-17T10:28:58.292Z,22.71
2022-10-17T10:31:04.804Z,22.88
2022-10-17T10:33:12.628Z,22.73
2022-10-17T10:35:22.615Z,22.57
2022-10-17T10:37:30.285Z,22.62
2022-10-17T10:39:42.856Z,22.45
2022-10-17T10:41:49.275Z,22.37
2022-10-17T10:43:53.028Z,22.41
2022-10-17T10:45:56.008Z,22.45
2022-10-17T10:50:25.054Z,22.39
2022-10-17T10:52:36.686Z,22.50
2022-10-17T10:54:42.680Z,22.39
2022-10-17T10:56:51.119Z,22.25
2022-10-17T10:58:58.294Z,22.34
2022-10-17T11:01:13.508Z,22.35
2022-10-17T11:03:20.170Z,22.45
2022-10-17T11:05:38.326Z,22.41
2022-10-17T11:07:45.099Z,22.43
2022-10-17T11:09:56.788Z,22.43
2022-10-17T11:12:03.035Z,22.30
2022-10-17T11:14:13.061Z,22.38
2022-10-17T11:16:33.775Z,22.29
2022-10-17T11:18:43.432Z,22.34
2022-10-17T11:20:53.223Z,22.35
2022-10-17T11:23:01.785Z,22.41
2022-10-17T11:25:07.677Z,22.36
2022-10-17T11:27:12.511Z,22.35
2022-10-17T11:29:15.430Z,22.37
2022-10-17T11:31:23.072Z,22.34
2022-10-17T11:33:30.034Z,22.44
2022-10-17T11:35:36.624Z,22.51
2022-10-17T11:37:45.022Z,22.43
2022-10-17T11:39:54.295Z,22.41
2022-10-17T11:42:03.449Z,22.34
2022-10-17T11:44:14.643Z,22.38
2022-10-17T11:46:22.159Z,22.41
2022-10-17T11:48:30.309Z,22.39
2022-10-17T11:53:02.126Z,22.34
2022-10-17T11:55:12.323Z,22.37
2022-10-17T11:59:57.715Z,22.39
2022-10-17T12:02:04.905Z,22.43
2022-10-17T12:04:20.704Z,22.37
2022-10-17T12:06:34.134Z,22.39
2022-10-17T12:08:44.098Z,22.36
2022-10-17T12:10:53.335Z,22.40
2022-10-17T12:12:56.312Z,22.43
2022-10-17T12:15:29.685Z,22.36
2022-10-17T12:17:36.846Z,22.35
2022-10-17T12:19:39.836Z,22.40
2022-10-17T12:21:56.264Z,22.27
2022-10-17T12:23:59.516Z,22.32
2022-10-17T12:26:27.328Z,22.33
2022-10-17T12:28:31.667Z,22.27
2022-10-17T12:30:35.295Z,22.31
2022-10-17T12:33:00.314Z,22.26
2022-10-17T12:35:01.640Z,22.27
2022-10-17T12:37:04.892Z,22.22
2022-10-17T12:39:51.037Z,22.21
2022-10-17T12:41:55.596Z,22.20
2022-10-17T12:43:58.814Z,22.32
2022-10-17T12:46:02.618Z,22.36
2022-10-17T12:48:07.611Z,22.29
2022-10-17T12:50:48.641Z,22.35
2022-10-17T12:53:00.150Z,22.42
2022-10-17T12:55:14.644Z,22.44
2022-10-17T12:57:23.144Z,22.42
2022-10-17T12:59:27.282Z,22.40
2022-10-17T13:01:32.938Z,22.39
2022-10-17T13:03:43.177Z,22.39
2022-10-17T13:05:49.152Z,22.33
2022-10-17T13:07:53.470Z,22.30
2022-10-17T13:09:56.623Z,22.33
2022-10-17T13:12:01.966Z,22.35
2022-10-17T13:14:15.663Z,22.35
2022-10-17T13:16:36.760Z,22.34
2022-10-17T13:18:39.712Z,22.22
2022-10-17T13:20:42.826Z,22.25
2022-10-17T13:22:46.661Z,22.27
2022-10-17T13:24:51.124Z,22.31
2022-10-17T13:26:54.234Z,22.29
2022-10-17T13:29:04.542Z,22.22
2022-10-17T13:31:15.064Z,22.27
2022-10-17T13:33:38.971Z,22.19
2022-10-17T13:35:59.445Z,21.97
2022-10-17T13:38:04.398Z,22.06
2022-10-17T13:40:30.833Z,21.93
2022-10-17T13:42:39.062Z,21.93
2022-10-17T13:44:43.527Z,21.79
2022-10-17T13:46:48.237Z,21.89
2022-10-17T13:48:51.757Z,21.87
2022-10-17T13:51:00.355Z,21.88
2022-10-17T13:53:26.406Z,21.90
2022-10-17T13:55:29.542Z,21.94
2022-10-17T13:57:32.960Z,21.95
2022-10-17T13:59:40.712Z,21.92
2022-10-17T14:01:43.835Z,21.89
2022-10-17T14:04:02.163Z,21.80
2022-10-17T14:06:19.233Z,21.78
2022-10-17T14:08:23.779Z,21.76
2022-10-17T14:10:28.835Z,21.76
2022-10-17T14:12:35.089Z,21.59
2022-10-17T14:15:05.131Z,21.72
2022-10-17T14:17:02.248Z,21.76
2022-10-17T14:19:07.950Z,21.67
2022-10-17T14:23:37.828Z,21.70
2022-10-17T14:25:41.828Z,21.59
2022-10-17T14:27:57.555Z,21.61
2022-10-17T14:30:03.930Z,21.63
2022-10-17T14:32:10.029Z,21.42
2022-10-17T14:34:25.445Z,21.47
2022-10-17T14:36:33.969Z,21.43
2022-10-17T14:38:37.015Z,21.40
2022-10-17T14:40:51.380Z,21.40
2022-10-17T14:42:55.527Z,21.33
2022-10-17T14:45:04.334Z,21.33
2022-10-17T14:47:41.750Z,21.27
2022-10-17T14:49:38.672Z,21.35
2022-10-17T14:51:56.552Z,21.32
2022-10-17T14:54:15.230Z,21.39
2022-10-17T14:56:25.827Z,21.36
2022-10-17T14:58:30.847Z,21.30
2022-10-17T15:00:34.081Z,21.32
2022-10-17T15:02:37.041Z,21.30
2022-10-17T15:04:41.894Z,21.33
2022-10-17T15:06:45.904Z,21.28
2022-10-17T15:08:48.903Z,21.28
2022-10-17T15:10:52.752Z,21.25
2022-10-17T15:12:59.183Z,21.25
2022-10-17T15:15:13.021Z,21.25
2022-10-17T15:17:20.707Z,21.27
2022-10-17T15:19:28.767Z,21.20
2022-10-17T15:21:39.607Z,21.16
2022-10-17T15:23:46.313Z,21.23
2022-10-17T15:25:49.309Z,21.15
2022-10-17T15:27:54.267Z,21.13
2022-10-17T15:29:58.151Z,21.09
2022-10-17T15:32:01.055Z,21.04
2022-10-17T15:34:04.202Z,21.12
2022-10-17T15:36:16.273Z,20.99
2022-10-17T15:38:20.971Z,20.94
2022-10-17T15:40:29.304Z,21.06
2022-10-17T15:42:32.730Z,21.01
2022-10-17T15:44:36.595Z,21.04
2022-10-17T15:46:43.194Z,21.07
2022-10-17T15:48:46.284Z,21.08
2022-10-17T15:50:49.196Z,21.04
2022-10-17T15:52:52.454Z,21.03
2022-10-17T15:54:59.534Z,21.01
2022-10-17T15:57:05.413Z,20.75
2022-10-17T15:59:14.601Z,20.72
2022-10-17T16:01:22.814Z,20.72
2022-10-17T16:03:25.781Z,20.74
2022-10-17T16:05:29.774Z,20.74
2022-10-17T16:07:32.979Z,20.66
2022-10-17T16:09:37.257Z,20.64
2022-10-17T16:11:42.937Z,20.60
2022-10-17T16:13:54.145Z,20.56
2022-10-17T16:15:57.155Z,20.54
2022-10-17T16:18:02.783Z,20.49
2022-10-17T16:20:09.480Z,20.49
2022-10-17T16:22:42.165Z,20.49
2022-10-17T16:24:45.074Z,20.40
2022-10-17T16:26:49.428Z,20.34
2022-10-17T16:28:52.384Z,20.36
2022-10-17T16:30:56.116Z,20.32
2022-10-17T16:32:59.056Z,20.31
2022-10-17T16:35:01.955Z,20.29
2022-10-17T16:37:12.733Z,19.98
2022-10-17T16:39:15.741Z,20.09
2022-10-17T16:41:23.030Z,20.12
2022-10-17T16:43:27.346Z,20.05
2022-10-17T16:45:30.367Z,19.99
2022-10-17T16:47:33.292Z,19.92
2022-10-17T16:49:39.197Z,19.77
2022-10-17T16:51:44.594Z,19.69
2022-10-17T16:53:50.140Z,19.75
2022-10-17T16:56:00.821Z,19.64
2022-10-17T16:58:03.735Z,19.57
2022-10-17T17:00:11.862Z,19.44
2022-10-17T17:02:17.605Z,19.38
2022-10-17T17:04:23.731Z,19.34
2022-10-17T17:06:29.502Z,19.30
2022-10-17T17:08:32.512Z,19.30
2022-10-17T17:10:35.441Z,19.31
2022-10-17T17:12:38.735Z,19.21
2022-10-17T17:14:41.717Z,19.18
2022-10-17T17:16:46.057Z,19.13
2022-10-17T17:18:51.466Z,19.01
2022-10-17T17:20:59.343Z,19.03
2022-10-17T17:23:04.904Z,18.92
2022-10-17T17:25:08.295Z,18.96
2022-10-17T17:27:13.448Z,18.98
2022-10-17T17:29:16.853Z,18.93
2022-10-17T17:31:22.101Z,18.94
2022-10-17T17:33:26.858Z,18.95
2022-10-17T17:35:30.620Z,18.87
2022-10-17T17:37:33.641Z,18.87
2022-10-17T17:39:36.698Z,18.83
2022-10-17T17:41:40.566Z,18.76
2022-10-17T17:43:44.382Z,18.70
2022-10-17T17:45:47.548Z,18.62
2022-10-17T17:47:50.463Z,18.61
2022-10-17T17:49:54.691Z,18.64
2022-10-17T17:51:57.613Z,18.59
2022-10-17T17:54:00.544Z,18.59
2022-10-17T17:56:03.904Z,18.47
2022-10-17T17:58:08.222Z,18.52
2022-10-17T18:00:12.873Z,18.56
2022-10-17T18:02:15.885Z,18.46
2022-10-17T18:04:19.131Z,18.55
2022-10-17T18:06:24.223Z,18.48
2022-10-17T18:08:27.114Z,18.53
2022-10-17T18:10:30.368Z,18.53
2022-10-17T18:12:34.599Z,18.45
2022-10-17T18:14:37.516Z,18.48
2022-10-17T18:16:40.479Z,18.52
2022-10-17T18:18:44.459Z,18.53
2022-10-17T18:20:48.039Z,18.56
2022-10-17T18:22:52.364Z,18.50
2022-10-17T18:24:55.237Z,18.54
2022-10-17T18:26:59.814Z,18.55
2022-10-17T18:29:03.175Z,18.51
2022-10-17T18:31:07.720Z,18.56
2022-10-17T18:33:12.992Z,18.56
2022-10-17T18:35:15.981Z,18.52
2022-10-17T18:37:19.281Z,18.42
2022-10-17T18:39:24.018Z,18.46
2022-10-17T18:41:30.514Z,18.50
2022-10-17T18:43:34.956Z,18.53
2022-10-17T18:45:39.242Z,18.52
2022-10-17T18:47:44.729Z,18.55
2022-10-17T18:49:48.214Z,18.55
2022-10-17T18:51:52.065Z,18.58
2022-10-17T18:53:58.568Z,18.56
2022-10-17T18:56:03.349Z,18.54
2022-10-17T18:58:06.343Z,18.38
2022-10-17T19:00:10.830Z,18.49
2022-10-17T19:02:14.016Z,18.49
2022-10-17T19:04:17.052Z,18.47
2022-10-17T19:06:24.806Z,18.50
2022-10-17T19:08:27.703Z,18.45
2022-10-17T19:10:30.598Z,18.41
2022-10-17T19:12:34.946Z,18.47
2022-10-17T19:14:38.700Z,18.44
2022-10-17T19:16:46.370Z,18.45
2022-10-17T19:18:52.748Z,18.45
2022-10-17T19:20:55.692Z,18.43
2022-10-17T19:22:58.925Z,18.40
2022-10-17T19:25:01.884Z,18.33
2022-10-17T19:27:06.843Z,18.37
2022-10-17T19:29:11.556Z,18.32
2022-10-17T19:31:17.009Z,18.15
2022-10-17T19:33:21.253Z,18.15
2022-10-17T19:35:24.150Z,18.14
2022-10-17T19:37:27.188Z,18.04
2022-10-17T19:39:30.499Z,18.03
2022-10-17T19:41:33.843Z,18.08
2022-10-17T19:43:37.312Z,17.98
2022-10-17T19:45:41.580Z,17.99
2022-10-17T19:47:44.436Z,17.92
2022-10-17T19:49:50.187Z,17.94
2022-10-17T19:51:53.185Z,17.87
2022-10-17T19:53:57.338Z,17.94
2022-10-17T19:56:00.791Z,17.97
2022-10-17T19:58:03.681Z,17.98
2022-10-17T20:00:07.829Z,18.00
2022-10-17T20:02:16.728Z,17.96
2022-10-17T20:04:19.586Z,17.97
2022-10-17T20:06:23.235Z,17.91
2022-10-17T20:10:34.715Z,17.67
2022-10-17T20:12:37.639Z,17.69
2022-10-17T20:14:41.535Z,17.60
2022-10-17T20:16:49.919Z,17.60
2022-10-17T20:18:56.394Z,17.65
2022-10-17T20:21:04.004Z,17.61
2022-10-17T20:23:06.874Z,17.58
2022-10-17T20:25:10.179Z,17.63
2022-10-17T20:27:13.027Z,17.63
2022-10-17T20:29:17.467Z,17.59
2022-10-17T20:31:21.111Z,17.58
2022-10-17T20:33:25.485Z,17.54
2022-10-17T20:35:31.639Z,17.49
2022-10-17T20:37:39.903Z,17.45
2022-10-17T20:39:45.547Z,17.48
2022-10-17T20:41:48.515Z,17.36
2022-10-17T20:43:52.174Z,17.42
2022-10-17T20:46:03.520Z,17.40
2022-10-17T20:48:15.129Z,17.42
2022-10-17T20:50:18.310Z,17.46
2022-10-17T20:52:22.611Z,17.43
2022-10-17T20:54:25.816Z,17.50
2022-10-17T20:56:30.468Z,17.47
2022-10-17T20:58:33.432Z,17.41
2022-10-17T21:00:39.160Z,17.39
2022-10-17T21:02:42.088Z,17.41
2022-10-17T21:04:46.768Z,17.39
2022-10-17T21:06:51.847Z,17.30
2022-10-17T21:08:56.903Z,17.32
2022-10-17T21:11:08.623Z,17.31
2022-10-17T21:13:11.767Z,17.36
2022-10-17T21:15:14.767Z,17.35
2022-10-17T21:17:17.967Z,17.41
2022-10-17T21:19:21.942Z,17.41
2022-10-17T21:21:26.734Z,17.39
2022-10-17T21:23:29.718Z,17.36
2022-10-17T21:25:34.450Z,17.32
2022-10-17T21:27:38.198Z,17.28
2022-10-17T21:29:41.132Z,17.32
2022-10-17T21:31:45.350Z,17.32
2022-10-17T21:33:49.918Z,17.34
2022-10-17T21:35:57.188Z,17.38
2022-10-17T21:38:03.003Z,17.37
2022-10-17T21:40:06.825Z,17.34
2022-10-17T21:42:11.139Z,17.32
2022-10-17T21:44:15.903Z,17.28
2022-10-17T21:46:19.983Z,17.24
2022-10-17T21:48:23.432Z,17.28
2022-10-17T21:50:26.414Z,17.24
2022-10-17T21:52:29.677Z,17.23
2022-10-17T21:54:34.575Z,17.29
2022-10-17T21:56:37.802Z,17.27
2022-10-17T21:58:42.435Z,17.29
2022-10-17T22:00:45.385Z,17.27
2022-10-17T22:02:48.209Z,17.28
2022-10-17T22:04:51.661Z,17.31
2022-10-17T22:06:54.550Z,17.32
2022-10-17T22:08:58.124Z,17.33
2022-10-17T22:11:06.029Z,17.37
2022-10-17T22:13:08.913Z,17.33
2022-10-17T22:17:21.044Z,17.28
2022-10-17T22:19:25.562Z,17.20
2022-10-17T22:21:28.948Z,17.27
2022-10-17T22:23:31.866Z,17.21
2022-10-17T22:25:34.760Z,17.23
2022-10-17T22:27:37.637Z,17.23
2022-10-17T22:29:42.670Z,17.21
2022-10-17T22:31:47.148Z,17.14
2022-10-17T22:33:50.469Z,17.06
2022-10-17T22:35:53.432Z,17.04
2022-10-17T22:37:56.297Z,16.99
2022-10-17T22:39:59.169Z,16.93
2022-10-17T22:42:02.068Z,16.95
2022-10-17T22:44:05.448Z,16.90
2022-10-17T22:46:08.753Z,16.88
2022-10-17T22:48:12.991Z,16.89
2022-10-17T22:50:16.657Z,16.86
2022-10-17T22:52:21.578Z,16.84
2022-10-17T22:54:24.646Z,16.82
2022-10-17T22:56:27.497Z,16.85
2022-10-17T22:58:31.761Z,16.81
2022-10-17T23:00:34.702Z,16.87
2022-10-17T23:02:37.687Z,16.84
2022-10-17T23:04:42.408Z,16.81
2022-10-17T23:06:45.295Z,16.76
2022-10-17T23:08:48.870Z,16.75
2022-10-17T23:10:55.306Z,16.69
2022-10-17T23:12:58.165Z,16.64
2022-10-17T23:15:01.367Z,16.62
2022-10-17T23:17:04.936Z,16.61
2022-10-17T23:19:08.075Z,16.62
2022-10-17T23:21:13.100Z,16.69
2022-10-17T23:23:16.726Z,16.72
2022-10-17T23:25:19.791Z,16.75
2022-10-17T23:27:22.714Z,16.73
2022-10-17T23:29:26.378Z,16.72
2022-10-17T23:31:29.317Z,16.77
2022-10-17T23:33:32.586Z,16.78
2022-10-17T23:35:35.657Z,16.77
2022-10-17T23:37:39.938Z,16.80
2022-10-17T23:39:42.831Z,16.80
2022-10-17T23:41:46.925Z,16.81
2022-10-17T23:43:49.796Z,16.81
2022-10-17T23:45:53.401Z,16.83
2022-10-17T23:47:56.352Z,16.87
2022-10-17T23:49:59.308Z,16.87
2022-10-17T23:52:02.164Z,16.87
2022-10-17T23:54:06.418Z,16.90
2022-10-17T23:56:10.128Z,16.87
2022-10-17T23:58:14.262Z,16.84
